createdAt,value
2018-05-03T00:01:47.475Z,67.43
2018-05-03T00:04:15.007Z,67.54
2018-05-03T00:06:42.533Z,67.55
2018-05-03T00:09:10.158Z,67.94
2018-05-03T00:11:37.734Z,68.31
2018-05-03T00:14:05.329Z,67.98
2018-05-03T00:16:32.854Z,68.11
2018-05-03T00:19:00.443Z,68.65
2018-05-03T00:21:27.989Z,68.95
2018-05-03T00:23:55.516Z,68.61
2018-05-03T00:26:23.092Z,69.08
2018-05-03T00:28:50.614Z,69.10
2018-05-03T00:31:18.147Z,69.04
2018-05-03T00:33:45.705Z,69.66
2018-05-03T00:36:13.225Z,69.71
2018-05-03T00:38:40.789Z,70.18
2018-05-03T00:41:08.314Z,69.65
2018-05-03T00:43:35.833Z,69.87
2018-05-03T00:46:03.386Z,70.23
2018-05-03T00:48:31.328Z,70.80
2018-05-03T00:50:58.845Z,70.73
2018-05-03T00:53:26.366Z,71.31
2018-05-03T00:55:54.222Z,71.69
2018-05-03T00:58:21.737Z,71.64
2018-05-03T01:00:49.257Z,72.08
2018-05-03T01:03:16.967Z,72.25
2018-05-03T01:05:44.498Z,72.24
2018-05-03T01:08:12.014Z,72.49
2018-05-03T01:10:39.555Z,72.52
2018-05-03T01:13:07.077Z,72.59
2018-05-03T01:15:34.825Z,72.50
2018-05-03T01:18:02.370Z,72.76
2018-05-03T01:20:29.897Z,72.63
2018-05-03T01:22:57.461Z,72.88
2018-05-03T01:25:24.977Z,72.78
2018-05-03T01:27:52.496Z,73.25
2018-05-03T01:30:20.166Z,73.81
2018-05-03T01:32:47.694Z,73.58
2018-05-03T01:35:27.153Z,73.51
2018-05-03T01:37:54.683Z,74.14
2018-05-03T01:40:22.215Z,74.06
2018-05-03T01:42:49.778Z,74.75
2018-05-03T01:45:17.316Z,75.13
2018-05-03T01:47:44.881Z,75.61
2018-05-03T01:50:12.407Z,76.09
2018-05-03T01:52:39.942Z,76.54
2018-05-03T01:55:07.481Z,76.66
2018-05-03T01:57:35.047Z,77.33
2018-05-03T02:00:02.566Z,77.51
2018-05-03T02:02:30.090Z,77.49
2018-05-03T02:04:57.649Z,77.96
2018-05-03T02:07:25.205Z,78.32
2018-05-03T02:09:52.784Z,78.40
2018-05-03T02:12:20.315Z,78.26
2018-05-03T02:14:48.288Z,78.66
2018-05-03T02:17:15.823Z,78.67
2018-05-03T02:19:43.357Z,79.07
2018-05-03T02:22:10.969Z,78.85
2018-05-03T02:24:38.486Z,78.65
2018-05-03T02:27:06.019Z,78.68
2018-05-03T02:29:33.567Z,78.81
2018-05-03T02:32:01.125Z,78.57
2018-05-03T02:34:28.647Z,78.32
2018-05-03T02:36:56.539Z,78.56
2018-05-03T02:39:24.062Z,78.67
2018-05-03T02:41:51.596Z,79.13
2018-05-03T02:44:19.164Z,79.09
2018-05-03T02:46:46.691Z,79.28
2018-05-03T02:49:14.252Z,79.25
2018-05-03T02:51:41.781Z,79.33
2018-05-03T02:54:09.336Z,79.41
2018-05-03T02:56:36.899Z,79.25
2018-05-03T02:59:16.346Z,79.24
2018-05-03T03:01:54.487Z,79.45
2018-05-03T03:04:39.642Z,79.40
2018-05-03T03:10:50.431Z,78.69
2018-05-03T03:16:53.343Z,78.63
2018-05-03T03:19:32.651Z,78.88
2018-05-03T03:22:17.819Z,79.11
2018-05-03T03:28:06.958Z,79.86
2018-05-03T03:34:23.357Z,80.48
2018-05-03T03:37:26.562Z,80.78
2018-05-03T03:40:11.741Z,81.17
2018-05-03T03:45:49.577Z,81.72
2018-05-03T03:48:17.575Z,82.13
2018-05-03T03:50:45.116Z,82.31
2018-05-03T03:53:12.694Z,82.58
2018-05-03T03:55:40.265Z,82.77
2018-05-03T03:58:07.788Z,82.80
2018-05-03T04:00:35.310Z,82.97
2018-05-03T04:03:02.870Z,83.48
2018-05-03T04:05:30.595Z,83.79
2018-05-03T04:07:58.128Z,83.93
2018-05-03T04:10:25.654Z,84.12
2018-05-03T04:12:53.203Z,84.07
2018-05-03T04:15:20.900Z,84.59
2018-05-03T04:18:00.269Z,84.65
2018-05-03T04:20:46.529Z,84.83
2018-05-03T04:26:18.984Z,84.71
2018-05-03T04:28:46.510Z,84.91
2018-05-03T04:31:14.036Z,85.03
2018-05-03T04:33:41.588Z,85.12
2018-05-03T04:36:09.140Z,85.25
2018-05-03T04:38:36.710Z,85.33
2018-05-03T04:41:04.243Z,85.04
2018-05-03T04:43:31.768Z,84.49
2018-05-03T04:45:59.314Z,84.30
2018-05-03T04:48:26.852Z,84.40
2018-05-03T04:50:54.605Z,84.54
2018-05-03T04:53:22.141Z,85.00
2018-05-03T04:55:49.666Z,84.99
2018-05-03T04:58:17.427Z,85.01
2018-05-03T05:00:44.951Z,85.14
2018-05-03T05:03:12.483Z,85.32
2018-05-03T05:05:40.471Z,85.43
2018-05-03T05:08:07.994Z,84.92
2018-05-03T05:10:35.577Z,84.87
2018-05-03T05:13:03.111Z,83.82
2018-05-03T05:15:30.673Z,83.85
2018-05-03T05:17:58.219Z,84.53
2018-05-03T05:20:25.777Z,82.78
2018-05-03T05:22:53.308Z,82.39
2018-05-03T05:25:20.832Z,82.42
2018-05-03T05:27:48.517Z,82.42
2018-05-03T05:30:16.051Z,81.59
2018-05-03T05:32:43.579Z,79.40
2018-05-03T05:35:11.136Z,79.33
2018-05-03T05:37:38.658Z,77.60
2018-05-03T05:40:06.218Z,76.00
2018-05-03T05:42:33.751Z,72.72
2018-05-03T05:45:01.308Z,74.75
2018-05-03T05:47:28.851Z,74.87
2018-05-03T05:49:56.409Z,71.42
2018-05-03T05:52:23.935Z,75.08
2018-05-03T05:54:51.500Z,74.96
2018-05-03T05:57:19.058Z,75.00
2018-05-03T05:59:46.575Z,75.49
2018-05-03T06:02:14.111Z,75.79
2018-05-03T06:04:41.652Z,76.27
2018-05-03T06:07:09.207Z,75.37
2018-05-03T06:09:36.735Z,74.59
2018-05-03T06:12:04.296Z,76.65
2018-05-03T06:14:31.871Z,76.18
2018-05-03T06:16:59.390Z,75.05
2018-05-03T06:19:26.914Z,72.58
2018-05-03T06:21:54.470Z,74.53
2018-05-03T06:24:22.024Z,73.50
2018-05-03T06:26:49.590Z,73.58
2018-05-03T06:29:17.118Z,73.72
2018-05-03T06:31:44.693Z,73.44
2018-05-03T06:34:12.226Z,71.10
2018-05-03T06:36:39.756Z,73.25
2018-05-03T06:39:07.388Z,72.67
2018-05-03T06:41:34.916Z,70.37
2018-05-03T06:44:02.457Z,69.34
2018-05-03T06:46:30.026Z,67.89
2018-05-03T06:48:57.551Z,67.75
2018-05-03T06:51:25.211Z,68.20
2018-05-03T06:53:52.701Z,67.14
2018-05-03T06:56:20.232Z,69.77
2018-05-03T06:58:47.836Z,69.42
2018-05-03T07:01:15.356Z,67.10
2018-05-03T07:03:42.891Z,68.34
2018-05-03T07:06:10.840Z,69.10
2018-05-03T07:08:38.375Z,67.23
2018-05-03T07:11:05.900Z,64.20
2018-05-03T07:13:33.488Z,65.05
2018-05-03T07:16:01.045Z,66.61
2018-05-03T07:18:28.584Z,64.75
2018-05-03T07:20:56.143Z,65.06
2018-05-03T07:23:23.667Z,63.44
2018-05-03T07:25:51.219Z,65.11
2018-05-03T07:28:18.742Z,63.94
2018-05-03T07:30:46.351Z,61.63
2018-05-03T07:33:13.888Z,61.48
2018-05-03T07:35:41.419Z,61.46
2018-05-03T07:38:09.026Z,61.80
2018-05-03T07:40:36.554Z,62.53
2018-05-03T07:43:04.115Z,62.39
2018-05-03T07:45:31.690Z,60.93
2018-05-03T07:47:59.211Z,58.86
2018-05-03T07:50:26.747Z,59.67
2018-05-03T07:52:54.298Z,59.73
2018-05-03T07:55:21.843Z,57.94
2018-05-03T07:57:49.380Z,58.53
2018-05-03T08:00:16.939Z,60.23
2018-05-03T08:02:44.476Z,57.75
2018-05-03T08:05:12.051Z,58.89
2018-05-03T08:07:39.567Z,58.14
2018-05-03T08:10:07.114Z,56.25
2018-05-03T08:12:34.707Z,54.97
2018-05-03T08:15:02.252Z,58.20
2018-05-03T08:17:29.829Z,58.28
2018-05-03T08:19:57.369Z,56.40
2018-05-03T08:22:24.955Z,56.04
2018-05-03T08:24:52.502Z,57.79
2018-05-03T08:27:20.027Z,59.04
2018-05-03T08:29:47.555Z,56.77
2018-05-03T08:32:15.143Z,57.58
2018-05-03T08:34:42.679Z,53.37
2018-05-03T08:37:10.208Z,53.97
2018-05-03T08:39:37.752Z,54.20
2018-05-03T08:42:05.300Z,54.10
2018-05-03T08:44:32.861Z,55.54
2018-05-03T08:47:00.396Z,55.13
2018-05-03T08:49:27.947Z,55.34
2018-05-03T08:51:55.497Z,54.72
2018-05-03T08:54:23.034Z,56.27
2018-05-03T08:56:51.006Z,53.93
2018-05-03T08:59:18.540Z,50.70
2018-05-03T09:01:46.084Z,50.71
2018-05-03T09:04:13.840Z,51.27
2018-05-03T09:06:41.371Z,51.88
2018-05-03T09:09:08.902Z,48.38
2018-05-03T09:11:36.442Z,52.34
2018-05-03T09:14:03.995Z,52.09
2018-05-03T09:16:31.540Z,52.79
2018-05-03T09:18:59.149Z,51.37
2018-05-03T09:21:26.683Z,50.38
2018-05-03T09:23:54.225Z,49.36
2018-05-03T09:26:21.775Z,46.32
2018-05-03T09:28:49.304Z,46.78
2018-05-03T09:31:16.866Z,47.82
2018-05-03T09:33:44.555Z,49.18
2018-05-03T09:36:12.498Z,46.98
2018-05-03T09:38:40.023Z,48.24
2018-05-03T09:41:07.548Z,46.21
2018-05-03T09:43:35.094Z,48.14
2018-05-03T09:46:02.623Z,48.10
2018-05-03T09:48:30.195Z,50.47
2018-05-03T09:50:57.724Z,51.80
2018-05-03T09:53:25.243Z,52.02
2018-05-03T09:55:52.815Z,51.67
2018-05-03T09:58:20.345Z,50.36
2018-05-03T10:00:47.903Z,49.73
2018-05-03T10:03:15.471Z,50.00
2018-05-03T10:05:43.001Z,49.33
2018-05-03T10:08:10.527Z,47.21
2018-05-03T10:10:38.082Z,45.63
2018-05-03T10:13:05.613Z,44.13
2018-05-03T10:15:33.656Z,44.80
2018-05-03T10:18:01.180Z,45.30
2018-05-03T10:20:28.715Z,47.76
2018-05-03T10:22:56.482Z,45.40
2018-05-03T10:25:24.004Z,46.53
2018-05-03T10:27:51.531Z,45.33
2018-05-03T10:30:19.144Z,46.14
2018-05-03T10:32:46.690Z,43.20
2018-05-03T10:35:14.220Z,41.21
2018-05-03T10:37:41.927Z,46.68
2018-05-03T10:40:09.470Z,45.37
2018-05-03T10:42:36.994Z,45.90
2018-05-03T10:45:04.597Z,44.75
2018-05-03T10:47:32.145Z,45.46
2018-05-03T10:49:59.667Z,44.61
2018-05-03T10:53:22.487Z,43.52
2018-05-03T10:55:50.448Z,42.22
2018-05-03T10:58:17.999Z,44.25
2018-05-03T11:00:45.556Z,44.78
2018-05-03T11:03:13.122Z,43.48
2018-05-03T11:05:40.664Z,40.18
2018-05-03T11:08:08.412Z,42.40
2018-05-03T11:10:35.938Z,42.85
2018-05-03T11:13:03.457Z,45.30
2018-05-03T11:15:31.038Z,45.68
2018-05-03T11:17:58.566Z,46.08
2018-05-03T11:20:26.092Z,46.78
2018-05-03T11:22:53.648Z,47.20
2018-05-03T11:25:21.312Z,46.93
2018-05-03T11:27:48.843Z,44.14
2018-05-03T11:30:16.363Z,44.75
2018-05-03T11:32:43.910Z,46.15
2018-05-03T11:35:11.443Z,45.51
2018-05-03T11:37:39.387Z,46.03
2018-05-03T11:40:06.911Z,45.45
2018-05-03T11:42:34.461Z,45.26
2018-05-03T11:45:02.018Z,46.37
2018-05-03T11:47:29.542Z,46.96
2018-05-03T11:49:57.113Z,47.87
2018-05-03T11:52:24.641Z,47.32
2018-05-03T11:54:52.163Z,48.30
2018-05-03T11:57:19.723Z,47.48
2018-05-03T11:59:47.252Z,48.58
2018-05-03T12:02:14.800Z,50.03
2018-05-03T12:04:42.328Z,49.33
2018-05-03T12:07:09.907Z,49.47
2018-05-03T12:09:37.428Z,46.75
2018-05-03T12:12:04.961Z,46.08
2018-05-03T12:14:32.505Z,43.65
2018-05-03T12:17:00.030Z,45.25
2018-05-03T12:19:27.579Z,42.42
2018-05-03T12:21:55.115Z,44.39
2018-05-03T12:24:23.119Z,45.33
2018-05-03T12:26:50.619Z,43.88
2018-05-03T12:29:18.147Z,45.31
2018-05-03T12:31:45.699Z,44.86
2018-05-03T12:34:13.223Z,44.65
2018-05-03T12:36:40.815Z,44.84
2018-05-03T12:39:08.334Z,45.51
2018-05-03T12:41:35.860Z,42.67
2018-05-03T12:44:03.421Z,40.46
2018-05-03T12:46:30.972Z,40.44
2018-05-03T12:48:58.500Z,40.97
2018-05-03T12:51:26.062Z,39.03
2018-05-03T12:53:53.588Z,41.36
2018-05-03T12:56:21.139Z,39.85
2018-05-03T12:58:48.719Z,41.92
2018-05-03T13:01:16.244Z,42.93
2018-05-03T13:03:43.771Z,44.12
2018-05-03T13:06:11.318Z,44.65
2018-05-03T13:08:38.876Z,45.17
2018-05-03T13:11:06.394Z,45.53
2018-05-03T13:13:33.931Z,44.70
2018-05-03T13:16:01.455Z,45.59
2018-05-03T13:18:29.017Z,45.21
2018-05-03T13:20:56.542Z,44.09
2018-05-03T13:23:24.106Z,42.98
2018-05-03T13:25:51.627Z,44.47
2018-05-03T13:28:19.161Z,43.50
2018-05-03T13:30:46.715Z,42.96
2018-05-03T13:33:14.236Z,43.37
2018-05-03T13:35:41.806Z,40.87
2018-05-03T13:38:09.326Z,40.27
2018-05-03T13:40:36.867Z,40.17
2018-05-03T13:43:04.414Z,42.37
2018-05-03T13:45:32.170Z,36.75
2018-05-03T13:47:59.692Z,36.95
2018-05-03T13:50:27.220Z,37.93
2018-05-03T13:52:54.897Z,39.99
2018-05-03T13:55:22.424Z,39.70
2018-05-03T13:57:49.961Z,39.74
2018-05-03T14:00:17.512Z,38.65
2018-05-03T14:02:45.178Z,40.02
2018-05-03T14:05:12.723Z,39.61
2018-05-03T14:07:40.261Z,40.41
2018-05-03T14:10:07.809Z,41.72
2018-05-03T14:12:35.333Z,40.80
2018-05-03T14:15:03.053Z,42.08
2018-05-03T14:17:30.581Z,42.32
2018-05-03T14:19:58.119Z,43.08
2018-05-03T14:22:25.685Z,41.35
2018-05-03T14:24:53.270Z,42.53
2018-05-03T14:27:20.905Z,42.22
2018-05-03T14:29:48.439Z,43.06
2018-05-03T14:32:15.984Z,42.60
2018-05-03T14:34:43.517Z,42.83
2018-05-03T14:37:11.067Z,42.56
2018-05-03T14:39:38.627Z,42.26
2018-05-03T14:42:06.147Z,43.09
2018-05-03T14:44:33.691Z,43.37
2018-05-03T14:47:01.222Z,44.04
2018-05-03T14:49:28.771Z,43.76
2018-05-03T14:51:56.347Z,43.31
2018-05-03T14:54:23.871Z,40.66
2018-05-03T14:56:51.394Z,41.20
2018-05-03T14:59:18.939Z,42.58
2018-05-03T15:01:46.470Z,42.38
2018-05-03T15:04:14.019Z,42.62
2018-05-03T15:06:41.696Z,42.14
2018-05-03T15:09:09.126Z,40.59
2018-05-03T15:11:37.131Z,39.66
2018-05-03T15:14:04.646Z,40.48
2018-05-03T15:16:32.242Z,39.91
2018-05-03T15:18:59.743Z,40.55
2018-05-03T15:21:27.262Z,39.96
2018-05-03T15:23:54.819Z,39.56
2018-05-03T15:26:22.342Z,41.49
2018-05-03T15:28:49.886Z,42.30
2018-05-03T15:31:17.410Z,42.48
2018-05-03T15:33:45.041Z,41.41
2018-05-03T15:36:12.655Z,41.27
2018-05-03T15:38:40.183Z,42.93
2018-05-03T15:41:07.729Z,43.16
2018-05-03T15:43:35.256Z,43.21
2018-05-03T15:46:03.178Z,42.88
2018-05-03T15:48:30.702Z,43.36
2018-05-03T15:50:58.223Z,43.10
2018-05-03T15:53:25.772Z,42.72
2018-05-03T15:55:56.039Z,42.97
2018-05-03T15:58:23.671Z,43.31
2018-05-03T16:00:51.239Z,43.73
2018-05-03T16:03:18.807Z,43.63
2018-05-03T16:05:46.340Z,41.89
2018-05-03T16:08:13.882Z,42.96
2018-05-03T16:10:41.435Z,42.30
2018-05-03T16:13:09.125Z,40.94
2018-05-03T16:15:36.874Z,41.25
2018-05-03T16:18:04.407Z,41.46
2018-05-03T16:20:32.197Z,42.11
2018-05-03T16:22:59.720Z,41.25
2018-05-03T16:25:27.254Z,41.95
2018-05-03T16:27:54.810Z,41.48
2018-05-03T16:30:22.331Z,41.49
2018-05-03T16:32:49.894Z,41.19
2018-05-03T16:35:17.434Z,40.84
2018-05-03T16:37:44.954Z,40.53
2018-05-03T16:40:12.538Z,41.79
2018-05-03T16:42:40.054Z,41.22
2018-05-03T16:45:07.585Z,40.96
2018-05-03T16:47:35.257Z,40.44
2018-05-03T16:50:02.788Z,40.92
2018-05-03T16:52:30.329Z,40.91
2018-05-03T16:54:57.884Z,40.26
2018-05-03T16:57:25.407Z,41.58
2018-05-03T16:59:53.398Z,41.83
2018-05-03T17:02:20.922Z,40.71
2018-05-03T17:04:48.472Z,40.48
2018-05-03T17:07:16.022Z,40.98
2018-05-03T17:09:43.548Z,41.36
2018-05-03T17:12:11.502Z,41.30
2018-05-03T17:14:39.032Z,41.56
2018-05-03T17:17:06.573Z,41.68
2018-05-03T17:19:34.139Z,40.81
2018-05-03T17:22:01.664Z,41.98
2018-05-03T17:24:29.240Z,40.86
2018-05-03T17:26:56.754Z,41.06
2018-05-03T17:29:24.406Z,41.02
2018-05-03T17:31:51.958Z,41.61
2018-05-03T17:34:19.486Z,41.86
2018-05-03T17:36:47.144Z,41.64
2018-05-03T17:39:14.683Z,42.06
2018-05-03T17:41:42.233Z,41.82
2018-05-03T17:44:09.831Z,41.62
2018-05-03T17:46:37.351Z,42.00
2018-05-03T17:49:05.143Z,41.83
2018-05-03T17:51:32.692Z,41.83
2018-05-03T17:54:00.239Z,41.62
2018-05-03T17:56:28.028Z,42.25
2018-05-03T17:58:55.550Z,42.25
2018-05-03T18:01:23.079Z,42.37
2018-05-03T18:03:50.642Z,41.96
2018-05-03T18:06:18.415Z,41.58
2018-05-03T18:08:45.940Z,40.97
2018-05-03T18:11:13.458Z,40.44
2018-05-03T18:13:41.024Z,39.99
2018-05-03T18:16:08.592Z,39.93
2018-05-03T18:18:36.115Z,40.22
2018-05-03T18:21:04.178Z,40.73
2018-05-03T18:23:31.706Z,41.79
2018-05-03T18:25:59.231Z,42.78
2018-05-03T18:28:27.000Z,44.45
2018-05-03T18:30:54.520Z,45.21
2018-05-03T18:33:22.043Z,46.15
2018-05-03T18:35:49.668Z,46.50
2018-05-03T18:38:17.238Z,47.35
2018-05-03T18:40:44.779Z,47.54
2018-05-03T18:43:12.526Z,48.22
2018-05-03T18:45:40.056Z,49.23
2018-05-03T18:48:07.583Z,49.15
2018-05-03T18:50:35.157Z,49.72
2018-05-03T18:53:02.683Z,51.06
2018-05-03T18:55:30.211Z,50.71
2018-05-03T18:57:57.797Z,51.67
2018-05-03T19:00:25.318Z,51.69
2018-05-03T19:02:52.876Z,51.98
2018-05-03T19:05:20.541Z,52.14
2018-05-03T19:07:48.370Z,52.20
2018-05-03T19:10:16.154Z,52.61
2018-05-03T19:12:44.004Z,53.20
2018-05-03T19:15:11.806Z,53.72
2018-05-03T19:17:39.397Z,53.79
2018-05-03T19:20:07.578Z,53.67
2018-05-03T19:22:35.188Z,53.70
2018-05-03T19:25:02.715Z,53.96
2018-05-03T19:27:30.236Z,53.93
2018-05-03T19:29:57.790Z,54.14
2018-05-03T19:32:25.365Z,54.68
2018-05-03T19:34:52.890Z,55.01
2018-05-03T19:37:20.450Z,54.70
2018-05-03T19:39:47.976Z,54.68
2018-05-03T19:42:15.501Z,54.93
2018-05-03T19:44:43.046Z,54.59
2018-05-03T19:47:10.573Z,55.33
2018-05-03T19:49:38.118Z,55.73
2018-05-03T19:52:05.639Z,55.10
2018-05-03T19:54:33.343Z,56.23
2018-05-03T19:57:00.885Z,55.68
2018-05-03T19:59:28.407Z,55.91
2018-05-03T20:01:55.950Z,55.85
2018-05-03T20:04:23.478Z,55.74
2018-05-03T20:06:51.051Z,56.39
2018-05-03T20:09:18.598Z,56.59
2018-05-03T20:11:46.125Z,56.24
2018-05-03T20:14:14.100Z,56.44
2018-05-03T20:16:41.622Z,56.98
2018-05-03T20:19:09.147Z,56.40
2018-05-03T20:21:36.691Z,56.46
2018-05-03T20:24:04.238Z,56.96
2018-05-03T20:26:32.235Z,56.64
2018-05-03T20:28:59.767Z,56.51
2018-05-03T20:31:27.295Z,56.34
2018-05-03T20:33:54.845Z,56.61
2018-05-03T20:36:22.432Z,56.79
2018-05-03T20:38:49.970Z,57.27
2018-05-03T20:41:17.500Z,57.33
2018-05-03T20:43:45.105Z,57.50
2018-05-03T20:46:12.751Z,59.12
2018-05-03T20:48:40.192Z,58.92
2018-05-03T20:51:07.771Z,58.93
2018-05-03T20:53:35.351Z,59.13
2018-05-03T20:56:02.875Z,58.45
2018-05-03T20:58:30.396Z,58.89
2018-05-03T21:00:58.080Z,58.78
2018-05-03T21:03:25.606Z,57.90
2018-05-03T21:05:53.139Z,57.90
2018-05-03T21:08:20.779Z,57.91
2018-05-03T21:10:48.309Z,57.19
2018-05-03T21:13:15.842Z,57.58
2018-05-03T21:15:43.393Z,58.16
2018-05-03T21:18:10.941Z,58.78
2018-05-03T21:20:38.871Z,57.72
2018-05-03T21:23:06.406Z,58.08
2018-05-03T21:25:33.934Z,58.08
2018-05-03T21:28:01.922Z,58.58
2018-05-03T21:30:29.459Z,59.46
2018-05-03T21:32:56.988Z,58.86
2018-05-03T21:35:24.764Z,58.75
2018-05-03T21:37:52.287Z,58.92
2018-05-03T21:40:19.812Z,59.81
2018-05-03T21:42:47.499Z,60.21
2018-05-03T21:45:15.024Z,59.75
2018-05-03T21:47:42.534Z,59.77
2018-05-03T21:50:10.088Z,60.57
2018-05-03T21:52:37.635Z,61.01
2018-05-03T21:55:05.209Z,61.47
2018-05-03T21:57:32.738Z,61.39
2018-05-03T22:00:00.265Z,61.54
2018-05-03T22:02:27.831Z,62.04
2018-05-03T22:04:55.371Z,61.93
2018-05-03T22:07:22.892Z,63.46
2018-05-03T22:09:50.492Z,63.09
2018-05-03T22:12:18.016Z,63.29
2018-05-03T22:14:45.545Z,63.44
2018-05-03T22:17:13.176Z,63.59
2018-05-03T22:19:40.659Z,63.23
2018-05-03T22:22:08.601Z,63.55
2018-05-03T22:24:36.139Z,63.14
2018-05-03T22:27:03.680Z,62.85
2018-05-03T22:29:31.398Z,64.50
2018-05-03T22:31:58.975Z,62.93
2018-05-03T22:34:26.509Z,62.51
2018-05-03T22:36:54.066Z,63.48
2018-05-03T22:39:22.024Z,62.91
2018-05-03T22:41:49.551Z,62.94
2018-05-03T22:44:17.074Z,63.44
2018-05-03T22:46:44.627Z,63.30
2018-05-03T22:49:12.167Z,63.09
2018-05-03T22:51:39.842Z,63.06
2018-05-03T22:54:07.357Z,62.88
2018-05-03T22:56:34.886Z,63.04
2018-05-03T22:59:02.440Z,63.12
2018-05-03T23:01:29.964Z,63.26
2018-05-03T23:03:57.516Z,63.30
2018-05-03T23:06:25.040Z,63.42
2018-05-03T23:08:52.801Z,63.66
2018-05-03T23:11:20.357Z,64.03
2018-05-03T23:13:47.897Z,64.17
2018-05-03T23:16:15.461Z,64.26
2018-05-03T23:18:43.013Z,63.55
2018-05-03T23:21:10.543Z,63.65
2018-05-03T23:23:38.100Z,63.73
2018-05-03T23:26:05.813Z,63.69
2018-05-03T23:28:33.341Z,63.80
2018-05-03T23:31:00.872Z,63.69
2018-05-03T23:33:28.456Z,64.06
2018-05-03T23:35:55.974Z,64.34
2018-05-03T23:38:23.508Z,64.53
2018-05-03T23:40:51.174Z,64.53
2018-05-03T23:43:18.702Z,65.30
2018-05-03T23:45:46.227Z,65.78
2018-05-03T23:48:13.807Z,65.59
2018-05-03T23:50:41.342Z,66.01
2018-05-03T23:53:08.871Z,65.83
2018-05-03T23:55:36.425Z,66.44
2018-05-03T23:58:03.962Z,66.54
